aviador You're here:

KGZH Decoded Metar

EVERGREEN in AL, USA
Report Time2018-05-26 14:53:00
UTC Time2018-05-26 15:37:31
Flight Rules vfr VFR
WindCalm
Visibility9999 m
Phenomena:N/A
Clouds:Scattered 055 Hf
Expected CloudBase > 2,000 ft AGL from Temp-Dew spread
CeilingNone
Temp27°C (ISA +13)
Dew Point22°C (74% RH)
Heat Index29.2°C
QNH1015 hPa
Density Alt1,978 ft
Elevation256 ft
Report Wrong Elevation
Raw Report
METAR KGZH 261453Z AUTO 00000KT 10SM SCT055 27/22 A2996 RMK AO2 SLP142
T02670217 50006 $=

Extra information for KGZH:More info

Metar Taf Metar & Taf Last 4 Metars F.Rules Stats Wind Profile Meteogram Temp Stats Airport Information Weather charts Add Link Nearby VenuesMetar ALERT Operation Metar Decoded Social comments

AIRNAV info for KGZH